Time;durP1;ratioP1;P1;durP2;ratioP2;P2;SDS_P1;SDS_P2;PMS_P1;PMS_P2;Temp;Humidity;BMP_temperature;BMP_pressure;BME280_temperature;BME280_humidity;BME280_pressure;Samples;Min_cycle;Max_cycle;Signal;HPM_P1;HPM_P2
2021/12/03 00:03:09;;;;;;;4.38;2.97;;;;;;;9.42;46.80;96538.97;10297557;28;20537;-58
2021/12/03 00:08:09;;;;;;;6.00;2.92;;;;;;;9.43;46.66;96533.78;10295114;28;20463;-58
2021/12/03 00:13:08;;;;;;;4.65;3.10;;;;;;;9.39;46.97;96531.25;10298028;28;20061;-58
2021/12/03 00:18:07;;;;;;;6.95;2.83;;;;;;;9.29;46.97;96538.31;10293254;28;20053;-58
2021/12/03 00:23:07;;;;;;;4.20;2.95;;;;;;;9.22;47.71;96534.09;10295897;28;20064;-58
2021/12/03 00:28:07;;;;;;;7.68;3.63;;;;;;;9.15;47.57;96543.66;10295678;28;20062;-58
2021/12/03 00:33:07;;;;;;;4.13;2.90;;;;;;;9.11;47.90;96567.88;10295436;28;20137;-58
2021/12/03 00:38:06;;;;;;;5.50;3.03;;;;;;;9.08;48.16;96561.03;10294916;28;20073;-58
2021/12/03 00:43:08;;;;;;;5.20;2.95;;;;;;;9.11;47.96;96553.22;10295016;28;20069;-58
2021/12/03 00:48:07;;;;;;;5.90;2.80;;;;;;;9.05;48.53;96531.75;10292322;28;20487;-58
2021/12/03 00:53:06;;;;;;;4.80;2.50;;;;;;;9.05;47.93;96534.34;10293169;28;20553;-58
2021/12/03 00:58:05;;;;;;;5.13;2.42;;;;;;;9.13;48.21;96527.31;10295765;28;20033;-58
2021/12/03 01:03:04;;;;;;;4.65;3.10;;;;;;;8.87;48.95;96483.72;10294095;28;20101;-58
2021/12/03 01:08:04;;;;;;;8.35;3.45;;;;;;;9.10;48.40;96514.44;10295689;28;20069;-58
2021/12/03 01:13:03;;;;;;;4.85;2.90;;;;;;;8.84;48.53;96473.41;10295499;28;20061;-58
2021/12/03 01:18:05;;;;;;;6.03;3.08;;;;;;;9.16;48.26;96522.09;10292298;28;20073;-58
2021/12/03 01:23:05;;;;;;;4.88;2.47;;;;;;;9.18;48.38;96509.97;10294756;28;20558;-58
2021/12/03 01:28:04;;;;;;;7.60;2.97;;;;;;;8.91;48.67;96455.19;10293162;28;20065;-58
2021/12/03 01:33:05;;;;;;;;;;;;;;;9.29;48.29;96513.28;10292806;28;20064;-58
2021/12/03 01:38:06;;;;;;;13.30;4.28;;;;;;;9.18;48.89;96525.50;10294461;28;20757;-58
2021/12/03 01:43:07;;;;;;;6.88;3.65;;;;;;;9.25;48.29;96542.63;10293632;28;20072;-58
2021/12/03 01:48:06;;;;;;;6.45;3.35;;;;;;;9.29;48.35;96543.50;10293365;28;20062;-58
2021/12/03 01:53:07;;;;;;;9.32;4.63;;;;;;;9.33;47.48;96550.34;10293977;28;20082;-58
2021/12/03 01:58:07;;;;;;;7.68;4.72;;;;;;;9.39;47.60;96562.31;10293784;28;20064;-58
2021/12/03 02:03:08;;;;;;;5.75;3.10;;;;;;;9.37;48.00;96545.97;10290085;28;20061;-58
2021/12/03 02:08:07;;;;;;;6.68;3.50;;;;;;;9.32;47.62;96546.03;10293597;28;20061;-58
2021/12/03 02:13:06;;;;;;;3.88;2.58;;;;;;;9.26;48.09;96528.00;10292963;28;20076;-58
2021/12/03 02:18:06;;;;;;;4.05;3.08;;;;;;;9.13;48.75;96519.53;10290868;28;20064;-58
2021/12/03 02:23:05;;;;;;;4.80;2.85;;;;;;;9.04;49.56;96519.69;10293487;28;20487;-58
2021/12/03 02:28:04;;;;;;;4.80;2.75;;;;;;;8.51;49.46;96421.31;10291828;28;20057;-58
2021/12/03 02:33:04;;;;;;;4.47;2.50;;;;;;;9.05;49.66;96492.94;10289725;28;20058;-58
2021/12/03 02:38:03;;;;;;;4.03;2.75;;;;;;;9.07;49.27;96488.59;10293438;28;20503;-58
2021/12/03 02:43:02;;;;;;;3.75;2.85;;;;;;;9.16;49.89;96491.03;10292429;28;20073;-58
2021/12/03 02:48:04;;;;;;;5.47;2.70;;;;;;;9.21;49.90;96484.06;10292704;28;20073;-58
2021/12/03 02:53:03;;;;;;;3.72;2.42;;;;;;;9.02;49.78;96451.56;10292583;28;20085;-58
2021/12/03 02:58:03;;;;;;;;;;;;;;;9.41;48.98;96482.91;10291266;28;20472;-58
2021/12/03 03:03:02;;;;;;;4.10;2.60;;;;;;;9.49;48.84;96486.22;10292619;28;19952;-58
2021/12/03 03:08:02;;;;;;;;;;;;;;;9.49;49.29;96494.00;10289372;28;20061;-58
2021/12/03 03:13:00;;;;;;;4.10;2.60;;;;;;;9.45;49.03;96495.78;10292366;28;19953;-58
2021/12/03 03:18:12;;;;;;;3.83;2.50;;;;;;;9.32;48.59;96458.88;10298778;28;20304;-58
2021/12/03 03:23:15;;;;;;;4.18;2.67;;;;;;;9.62;48.85;96505.84;10299462;28;20523;-58
2021/12/03 03:28:15;;;;;;;4.38;3.10;;;;;;;9.49;49.27;96501.78;10299401;28;20062;-58
2021/12/03 03:33:15;;;;;;;5.00;2.63;;;;;;;9.49;48.88;96499.19;10299033;28;20069;-58
2021/12/03 03:38:14;;;;;;;4.25;2.50;;;;;;;9.49;49.29;96499.19;10295925;28;20072;-58
2021/12/03 03:43:15;;;;;;;4.95;2.90;;;;;;;9.15;49.10;96459.13;10296415;28;20061;-58
2021/12/03 03:48:14;;;;;;;4.97;2.80;;;;;;;9.48;49.45;96513.00;10298704;28;20068;-58
2021/12/03 03:53:13;;;;;;;5.85;2.85;;;;;;;9.43;49.77;96520.84;10294896;28;20077;-58
2021/12/03 03:58:12;;;;;;;4.35;2.70;;;;;;;9.35;49.89;96513.19;10297929;28;20826;-58
2021/12/03 04:03:12;;;;;;;7.25;3.30;;;;;;;9.27;50.21;96517.59;10298522;28;20392;-58
2021/12/03 04:08:11;;;;;;;4.75;2.90;;;;;;;8.68;49.81;96447.75;10294693;28;20064;-58
2021/12/03 04:13:10;;;;;;;6.47;3.20;;;;;;;8.88;50.05;96478.53;10297124;28;20065;-58
2021/12/03 04:18:09;;;;;;;4.40;3.30;;;;;;;8.65;50.89;96459.91;10297962;28;20116;-58
2021/12/03 04:23:09;;;;;;;6.90;3.80;;;;;;;8.88;50.73;96509.56;10295214;28;20567;-58
2021/12/03 04:28:08;;;;;;;;;;;;;;;8.80;51.99;96532.09;10296730;28;20069;-60
2021/12/03 04:33:08;;;;;;;7.28;3.42;;;;;;;8.60;51.90;96500.47;10296465;28;19917;-58
2021/12/03 04:38:07;;;;;;;7.18;3.10;;;;;;;8.78;51.90;96535.56;10292652;28;20100;-58
2021/12/03 04:43:07;;;;;;;5.38;3.10;;;;;;;8.47;51.58;96469.59;10296639;28;20100;-58
2021/12/03 04:48:07;;;;;;;4.88;3.45;;;;;;;8.73;51.63;96527.88;10296310;28;20482;-58
2021/12/03 04:53:07;;;;;;;6.25;3.65;;;;;;;8.78;51.99;96545.91;10295577;28;20093;-58
2021/12/03 04:58:06;;;;;;;6.25;3.50;;;;;;;8.75;52.32;96559.75;10295012;28;20069;-58
2021/12/03 05:03:07;;;;;;;6.78;3.50;;;;;;;8.72;52.35;96562.38;10295407;28;20061;-58
2021/12/03 05:08:10;;;;;;;7.60;3.60;;;;;;;8.70;52.57;96559.81;10289726;28;20080;-58
2021/12/03 05:13:13;;;;;;;6.07;3.03;;;;;;;8.69;52.75;96541.72;10295583;28;20057;-58
2021/12/03 05:18:15;;;;;;;5.43;3.20;;;;;;;8.50;52.91;96515.25;10293765;28;20084;-58
2021/12/03 05:23:14;;;;;;;6.82;3.75;;;;;;;8.69;53.54;96544.31;10295092;28;20076;-58
2021/12/03 05:28:15;;;;;;;10.55;5.40;;;;;;;8.68;53.45;96547.78;10295556;28;20065;-58
2021/12/03 05:33:14;;;;;;;6.85;3.90;;;;;;;8.78;52.83;96551.94;10294603;28;20081;-58
2021/12/03 05:38:13;;;;;;;7.80;4.20;;;;;;;8.81;53.60;96562.28;10291280;28;20065;-58
2021/12/03 05:43:12;;;;;;;6.88;3.33;;;;;;;8.83;52.81;96568.28;10294556;28;20077;-58
2021/12/03 05:48:13;;;;;;;6.65;3.15;;;;;;;8.93;52.74;96572.44;10286801;28;20057;-58
2021/12/03 05:53:12;;;;;;;12.88;4.93;;;;;;;9.01;53.32;96579.25;10292856;28;20081;-58
2021/12/03 05:58:11;;;;;;;7.80;3.90;;;;;;;9.03;52.67;96572.31;10294435;28;20076;-58
2021/12/03 06:03:11;;;;;;;;;;;;;;;9.18;52.58;96584.19;10289479;28;20068;-58
2021/12/03 06:08:10;;;;;;;8.30;4.27;;;;;;;9.24;52.46;96589.28;10289099;28;19972;-58
2021/12/03 06:13:09;;;;;;;6.57;3.55;;;;;;;8.81;52.70;96531.22;10288774;28;20505;-58
2021/12/03 06:18:08;;;;;;;;;;;;;;;9.29;52.40;96601.28;10292915;28;20065;-58
2021/12/03 06:23:07;;;;;;;6.57;3.88;;;;;;;9.43;52.09;96597.66;10292734;28;19921;-58
2021/12/03 06:28:07;;;;;;;10.55;3.28;;;;;;;9.25;52.15;96563.34;10292727;28;20018;-58
2021/12/03 06:33:06;;;;;;;6.90;3.00;;;;;;;9.55;51.38;96608.66;10289487;28;20496;-58
2021/12/03 06:38:05;;;;;;;7.18;3.80;;;;;;;9.90;51.44;96640.09;10292874;28;20061;-58
2021/12/03 06:43:04;;;;;;;6.43;3.50;;;;;;;10.00;51.11;96641.63;10290456;28;20038;-58
2021/12/03 06:48:03;;;;;;;4.50;2.95;;;;;;;10.15;51.02;96656.09;10293253;28;20435;-59
2021/12/03 06:53:06;;;;;;;;;;;;;;;10.32;50.78;96656.66;10300866;28;20070;-58
2021/12/03 06:58:05;;;;;;;6.05;3.03;;;;;;;10.45;50.51;96654.72;10300352;28;19952;-58
2021/12/03 07:03:04;;;;;;;10.98;3.38;;;;;;;10.53;49.28;96658.00;10299225;28;20054;-58
2021/12/03 07:08:04;;;;;;;9.25;3.60;;;;;;;10.64;49.36;96633.63;10298525;28;20061;-58
2021/12/03 07:13:03;;;;;;;7.70;3.90;;;;;;;10.34;49.66;96573.66;10295826;28;20776;-58
2021/12/03 07:18:02;;;;;;;6.53;3.65;;;;;;;10.71;49.18;96625.69;10297258;28;20057;-58
2021/12/03 07:23:02;;;;;;;;;;;;;;;10.88;49.65;96655.66;10298430;28;20099;-58
2021/12/03 07:28:01;;;;;;;5.53;3.20;;;;;;;10.93;48.75;96646.88;10295258;28;20330;-58
2021/12/03 07:33:01;;;;;;;7.50;3.53;;;;;;;11.03;49.14;96657.94;10299047;28;20476;-58
2021/12/03 07:38:00;;;;;;;8.45;3.75;;;;;;;11.17;48.55;96653.31;10298585;28;20065;-58
2021/12/03 07:42:59;;;;;;;5.32;3.22;;;;;;;11.18;49.29;96664.56;10295591;28;20022;-58
2021/12/03 07:47:58;;;;;;;7.53;3.55;;;;;;;11.33;48.34;96645.19;10298653;28;20034;-58
2021/12/03 07:52:57;;;;;;;12.40;4.32;;;;;;;11.33;48.08;96658.19;10297412;28;20455;-59
2021/12/03 07:57:56;;;;;;;9.52;4.25;;;;;;;11.52;47.48;96656.03;10296386;28;20074;-59
2021/12/03 08:02:55;;;;;;;10.35;3.90;;;;;;;11.10;47.65;96560.00;10297050;28;20042;-59
2021/12/03 08:07:54;;;;;;;7.07;2.58;;;;;;;11.88;47.30;96655.19;10295374;28;20061;-59
2021/12/03 08:12:54;;;;;;;11.00;3.50;;;;;;;12.05;47.10;96640.94;10293332;28;20069;-59
2021/12/03 08:17:53;;;;;;;8.07;3.22;;;;;;;12.25;46.95;96649.09;10297761;28;20080;-59
2021/12/03 08:22:52;;;;;;;5.13;2.50;;;;;;;12.48;45.72;96652.84;10296597;28;20068;-59
2021/12/03 08:27:50;;;;;;;12.70;6.55;;;;;;;12.78;45.44;96648.59;10296895;28;20119;-59
2021/12/03 08:32:49;;;;;;;8.90;3.78;;;;;;;12.82;45.43;96633.75;10296344;28;20109;-59
2021/12/03 08:37:50;;;;;;;9.60;4.10;;;;;;;13.04;44.53;96624.41;10295635;28;20113;-59
2021/12/03 08:42:50;;;;;;;6.50;3.33;;;;;;;13.42;44.06;96671.97;10293407;28;20483;-59
2021/12/03 08:47:52;;;;;;;5.40;2.78;;;;;;;13.58;43.29;96651.50;10291526;28;20062;-59
2021/12/03 08:58:10;;;;;;;7.85;2.80;;;;;;;13.89;43.30;96658.38;10296203;28;20065;-59
2021/12/03 09:03:09;;;;;;;8.00;2.80;;;;;;;14.08;42.84;96661.25;10295532;28;20549;-59
2021/12/03 09:08:09;;;;;;;8.80;3.17;;;;;;;14.19;43.04;96653.91;10294842;28;20884;-59
2021/12/03 09:13:08;;;;;;;10.55;3.80;;;;;;;14.33;42.40;96659.53;10294959;28;20057;-59
2021/12/03 09:28:47;;;;;;;6.50;2.47;;;;;;;14.60;41.66;96664.72;10295908;28;20065;-59
2021/12/03 09:33:49;;;;;;;8.57;3.20;;;;;;;14.25;42.41;96627.63;10293960;28;20482;-59
2021/12/03 09:38:48;;;;;;;4.63;2.55;;;;;;;14.69;42.06;96682.69;10294185;28;20125;-59
2021/12/03 09:43:52;;;;;;;10.93;3.25;;;;;;;14.67;41.95;96662.75;10294640;28;20065;-59
2021/12/03 10:20:48;;;;;;;4.85;2.83;;;;;;;14.17;42.93;96673.97;10293721;28;20061;-59
2021/12/03 10:52:34;;;;;;;7.93;3.20;;;;;;;13.87;43.64;96631.50;10291342;28;20519;-59
2021/12/03 11:29:08;;;;;;;7.10;2.80;;;;;;;13.23;42.70;96489.25;10292132;28;20069;-60
2021/12/03 12:00:38;;;;;;;9.15;3.63;;;;;;;14.39;41.55;96646.28;10298559;28;19999;-59
2021/12/03 12:12:11;;;;;;;17.95;9.45;;;;;;;14.44;40.96;96650.50;10297291;28;20065;-59
2021/12/03 14:13:04;;;;;;;20.80;12.15;;;;;;;13.39;41.12;96629.47;10294157;28;20538;-59
2021/12/03 14:38:39;;;;;;;19.80;10.90;;;;;;;9.42;57.78;96762.53;10292325;28;20983;-59
2021/12/03 14:43:47;;;;;;;15.50;9.50;;;;;;;8.97;59.42;96800.09;10292065;28;20444;-59
2021/12/03 14:59:28;;;;;;;17.45;11.30;;;;;;;8.12;62.60;96849.03;10292270;28;20069;-59
2021/12/03 15:09:47;;;;;;;17.58;9.57;;;;;;;7.71;65.14;96888.81;10293667;28;20069;-59
2021/12/03 15:30:23;;;;;;;29.65;19.63;;;;;;;6.74;67.92;96887.25;10299281;28;20061;-59
2021/12/03 15:35:33;;;;;;;28.33;17.00;;;;;;;7.24;67.81;96963.78;10298531;28;20471;-59
2021/12/03 16:17:25;;;;;;;29.88;19.05;;;;;;;7.15;67.90;97027.44;10296670;28;20057;-59
2021/12/03 16:53:46;;;;;;;33.83;19.98;;;;;;;7.20;68.34;97077.31;10293279;28;20092;-59
2021/12/03 16:58:46;;;;;;;20.50;13.25;;;;;;;7.06;69.39;97084.16;10291656;28;20061;-59
2021/12/03 17:03:51;;;;;;;19.75;15.00;;;;;;;7.03;68.93;97096.19;10292043;28;20101;-59
2021/12/03 17:45:38;;;;;;;22.13;14.25;;;;;;;6.40;70.06;97090.81;10292612;28;20451;-59
2021/12/03 17:50:46;;;;;;;15.70;10.48;;;;;;;6.38;69.66;97100.25;10288757;28;20487;-59
2021/12/03 18:06:30;;;;;;;13.15;9.02;;;;;;;5.93;70.41;97016.75;10289418;28;20077;-59
2021/12/03 18:58:24;;;;;;;18.75;10.93;;;;;;;6.57;68.32;97175.97;10299247;28;20824;-59
2021/12/03 19:03:58;;;;;;;19.42;11.73;;;;;;;6.61;68.96;97169.13;10297669;28;20076;-59
2021/12/03 19:09:03;;;;;;;28.55;19.10;;;;;;;6.70;68.68;97164.00;10295385;28;20069;-59
2021/12/03 19:14:03;;;;;;;60.90;40.30;;;;;;;6.77;69.31;97168.34;10297769;28;20068;-59
2021/12/03 19:19:04;;;;;;;56.65;33.50;;;;;;;6.93;69.37;97178.69;10297280;28;20069;-58
2021/12/03 19:24:04;;;;;;;19.65;12.20;;;;;;;7.03;68.91;97188.22;10294418;28;20554;-59
2021/12/03 19:29:04;;;;;;;13.98;9.68;;;;;;;7.04;69.47;97174.44;10296107;28;20462;-59
2021/12/03 19:34:03;;;;;;;12.68;7.82;;;;;;;7.09;69.77;97184.78;10294405;28;20503;-59
2021/12/03 19:39:02;;;;;;;10.23;6.45;;;;;;;7.06;69.29;97172.75;10293174;28;20488;-59
2021/12/03 19:44:03;;;;;;;9.95;7.28;;;;;;;7.18;69.40;97208.03;10297270;28;20073;-59
2021/12/03 19:54:08;;;;;;;11.23;7.35;;;;;;;7.25;71.08;97210.63;10296931;28;20491;-59
2021/12/03 19:59:07;;;;;;;14.70;9.43;;;;;;;6.77;71.15;97147.72;10296610;28;20482;-59
2021/12/03 20:04:08;;;;;;;16.15;9.43;;;;;;;7.16;71.67;97218.34;10293272;28;20066;-59
2021/12/03 20:09:10;;;;;;;11.20;8.60;;;;;;;7.09;72.25;97231.22;10295310;28;20080;-59
2021/12/03 20:14:13;;;;;;;13.95;9.55;;;;;;;7.06;71.94;97231.22;10295741;28;20061;-59
2021/12/03 20:24:23;;;;;;;7.95;4.70;;;;;;;6.36;73.13;97148.34;10295450;28;20026;-59
2021/12/03 20:29:35;;;;;;;7.30;4.07;;;;;;;6.70;74.17;97237.88;10255211;28;20092;-58
2021/12/03 20:39:55;;;;;;;3.47;2.60;;;;;;;6.55;75.02;97230.94;10273247;28;20065;-59
2021/12/03 20:45:10;;;;;;;4.50;2.95;;;;;;;6.46;75.07;97230.88;10291596;28;20073;-58
2021/12/03 20:50:36;;;;;;;6.28;3.63;;;;;;;6.40;74.95;97221.41;10293845;28;20077;-59
2021/12/03 21:11:34;;;;;;;7.45;4.30;;;;;;;5.95;75.26;97155.78;10294366;28;20065;-58
2021/12/03 21:16:56;;;;;;;8.25;5.05;;;;;;;6.18;75.91;97225.50;10292386;28;20482;-59
2021/12/03 21:21:59;;;;;;;6.05;2.97;;;;;;;6.13;76.42;97217.75;10292664;28;20069;-59
2021/12/03 21:27:00;;;;;;;8.55;5.15;;;;;;;5.75;76.81;97168.53;10291179;28;20077;-59
2021/12/03 21:32:14;;;;;;;6.63;3.80;;;;;;;5.53;77.27;97152.91;10289062;28;20065;-59
2021/12/03 21:42:33;;;;;;;8.07;4.10;;;;;;;5.68;77.45;97171.91;10291892;28;20069;-58
2021/12/03 21:47:32;;;;;;;6.80;4.32;;;;;;;6.04;77.69;97209.94;10290748;28;20076;-59
2021/12/03 21:52:31;;;;;;;;;;;;;;;6.06;77.32;97209.97;10290560;28;20077;-59
2021/12/03 21:57:30;;;;;;;9.88;6.50;;;;;;;6.04;77.71;97209.94;10290156;28;19932;-58
2021/12/03 22:02:29;;;;;;;8.20;5.80;;;;;;;5.95;77.36;97203.03;10289634;28;20030;-59
2021/12/03 22:07:28;;;;;;;10.93;6.32;;;;;;;5.95;78.09;97231.34;10290099;28;20037;-58
2021/12/03 22:12:27;;;;;;;6.95;4.20;;;;;;;5.96;78.52;97216.75;10287234;28;20084;-58
2021/12/03 22:17:26;;;;;;;6.50;4.30;;;;;;;5.71;78.40;97180.50;10289073;28;20503;-59
2021/12/03 22:22:25;;;;;;;8.40;5.32;;;;;;;5.75;78.85;97186.53;10286291;28;20478;-59
2021/12/03 22:27:25;;;;;;;7.90;5.25;;;;;;;6.01;78.68;97209.06;10289400;28;20073;-59
2021/12/03 22:32:24;;;;;;;;;;;;;;;5.96;78.82;97214.19;10289878;28;20068;-59
2021/12/03 22:37:22;;;;;;;9.15;6.25;;;;;;;5.51;78.78;97154.59;10289108;28;19914;-59
2021/12/03 22:42:22;;;;;;;17.38;11.43;;;;;;;5.55;79.51;97192.38;10289020;28;20034;-59
2021/12/03 22:47:32;;;;;;;15.18;10.43;;;;;;;5.55;79.89;97199.22;10288895;28;20076;-58
2021/12/03 22:52:31;;;;;;;14.20;10.18;;;;;;;5.52;80.07;97191.47;10288359;28;20081;-59
2021/12/03 22:57:30;;;;;;;9.10;5.15;;;;;;;5.48;80.04;97182.84;10286714;28;20033;-58
2021/12/03 23:02:29;;;;;;;13.57;8.63;;;;;;;5.41;80.82;97190.50;10289290;28;20073;-58
2021/12/03 23:07:28;;;;;;;13.68;9.27;;;;;;;5.48;80.56;97174.25;10289343;28;20044;-58
2021/12/03 23:12:27;;;;;;;15.27;8.07;;;;;;;5.65;80.95;97177.88;10289864;28;20038;-58
2021/12/03 23:17:26;;;;;;;7.80;5.10;;;;;;;5.38;80.08;97128.72;10287202;28;20033;-58
2021/12/03 23:22:25;;;;;;;20.25;9.82;;;;;;;5.80;79.85;97172.00;10286715;28;20139;-58
2021/12/03 23:27:24;;;;;;;96.90;40.15;;;;;;;5.84;79.77;97172.91;10286245;28;20048;-59
2021/12/03 23:32:23;;;;;;;26.63;13.68;;;;;;;5.89;80.22;97173.78;10293698;28;20479;-58
2021/12/03 23:37:22;;;;;;;25.58;12.70;;;;;;;5.94;79.81;97191.00;10294048;28;20065;-58
2021/12/03 23:42:22;;;;;;;53.60;24.05;;;;;;;5.94;80.08;97188.41;10296388;28;20066;-58
2021/12/03 23:47:21;;;;;;;;;;;;;;;5.93;80.12;97181.56;10296281;28;20069;-58
2021/12/03 23:52:19;;;;;;;15.50;9.32;;;;;;;5.85;79.90;97190.91;10295735;28;19927;-58
2021/12/03 23:57:18;;;;;;;11.95;7.07;;;;;;;5.80;80.17;97196.88;10295953;28;20018;-58
